Time;durP1;ratioP1;P1;durP2;ratioP2;P2;SDS_P1;SDS_P2;PMS_P1;PMS_P2;Temp;Humidity;BMP_temperature;BMP_pressure;BME280_temperature;BME280_humidity;BME280_pressure;Samples;Min_cycle;Max_cycle;Signal;HPM_P1;HPM_P2
2021/12/22 00:02:16;;;;;;;16.57;8.77;;;-3.10;99.90;;;;;;5091058;28;20203;-60
2021/12/22 00:04:46;;;;;;;22.10;10.80;;;-3.10;99.90;;;;;;5090773;28;20187;-60
2021/12/22 00:07:13;;;;;;;20.47;10.83;;;-3.20;99.90;;;;;;5090965;28;20657;-60
2021/12/22 00:09:40;;;;;;;36.73;15.33;;;-3.20;99.90;;;;;;5090538;28;20199;-60
2021/12/22 00:12:06;;;;;;;33.33;14.27;;;-3.20;99.90;;;;;;5090156;28;20230;-61
2021/12/22 00:14:32;;;;;;;23.83;12.40;;;-3.30;99.90;;;;;;5091129;28;20207;-60
2021/12/22 00:16:57;;;;;;;17.93;9.33;;;-3.30;99.90;;;;;;5092347;28;20215;-60
2021/12/22 00:19:23;;;;;;;40.20;15.10;;;-3.30;99.90;;;;;;5094744;28;20184;-60
2021/12/22 00:21:48;;;;;;;38.67;15.63;;;-3.30;99.90;;;;;;5094998;28;20274;-61
2021/12/22 00:24:14;;;;;;;29.60;12.30;;;-3.30;99.90;;;;;;5095019;28;20274;-61
2021/12/22 00:26:40;;;;;;;22.67;10.77;;;-3.30;99.90;;;;;;5094713;28;20635;-60
2021/12/22 00:29:06;;;;;;;19.97;9.97;;;-3.40;99.90;;;;;;5094364;28;20229;-60
2021/12/22 00:31:40;;;;;;;30.60;12.03;;;-3.40;99.90;;;;;;5094655;28;20207;-60
2021/12/22 00:34:14;;;;;;;29.40;11.80;;;-3.40;99.90;;;;;;5094897;28;20695;-60
2021/12/22 00:36:40;;;;;;;27.97;12.30;;;-3.40;99.90;;;;;;5093310;28;20603;-60
2021/12/22 00:39:06;;;;;;;30.37;11.87;;;-3.40;99.90;;;;;;5092708;28;20264;-61
2021/12/22 00:41:31;;;;;;;28.07;12.53;;;-3.40;99.90;;;;;;5094463;28;20211;-60
2021/12/22 00:43:57;;;;;;;24.27;11.00;;;-3.50;99.90;;;;;;5092672;28;20187;-59
2021/12/22 00:46:22;;;;;;;19.73;8.67;;;-3.50;99.90;;;;;;5093103;28;20547;-59
2021/12/22 00:48:48;;;;;;;16.47;8.00;;;-3.50;99.90;;;;;;5094053;28;20642;-59
2021/12/22 00:51:14;;;;;;;13.77;6.83;;;-3.50;99.90;;;;;;5090585;28;20266;-60
2021/12/22 00:53:39;;;;;;;15.90;7.77;;;-3.50;99.90;;;;;;5091319;28;20698;-59
2021/12/22 00:56:07;;;;;;;19.73;9.43;;;-3.50;99.90;;;;;;5085598;28;20263;-60
2021/12/22 00:58:32;;;;;;;19.80;9.97;;;-3.60;99.90;;;;;;5094395;28;20231;-61
2021/12/22 01:00:59;;;;;;;20.60;8.57;;;-3.60;99.90;;;;;;5087845;28;20228;-60
2021/12/22 01:03:26;;;;;;;20.07;9.90;;;-3.60;99.90;;;;;;5088402;28;20631;-61
2021/12/22 01:05:52;;;;;;;15.57;8.53;;;-3.60;99.90;;;;;;5092908;28;20639;-61
2021/12/22 01:08:18;;;;;;;17.33;8.07;;;-3.60;99.90;;;;;;5083331;28;20741;-60
2021/12/22 01:10:44;;;;;;;15.33;7.80;;;-3.60;99.90;;;;;;5089595;28;20211;-60
2021/12/22 01:13:10;;;;;;;17.13;7.97;;;-3.60;99.90;;;;;;5079866;28;20263;-61
2021/12/22 01:15:36;;;;;;;13.53;7.90;;;-3.60;99.90;;;;;;5094035;28;20241;-60
2021/12/22 01:18:14;;;;;;;13.00;7.43;;;-3.60;99.90;;;;;;5092334;28;20176;-61
2021/12/22 01:23:20;;;;;;;13.17;6.97;;;-3.70;99.90;;;;;;5093717;28;20510;-60
2021/12/22 01:25:48;;;;;;;11.77;6.97;;;-3.70;99.90;;;;;;5093925;28;20275;-61
2021/12/22 01:28:15;;;;;;;13.07;7.83;;;-3.70;99.90;;;;;;5093214;28;20715;-61
2021/12/22 01:30:44;;;;;;;14.87;6.53;;;-3.70;99.90;;;;;;5077090;28;20188;-60
2021/12/22 01:33:11;;;;;;;10.77;6.67;;;-3.70;99.90;;;;;;5089812;28;20176;-62
2021/12/22 01:35:38;;;;;;;14.07;6.87;;;-3.70;99.90;;;;;;5092302;28;20274;-61
2021/12/22 01:38:04;;;;;;;11.80;5.80;;;-3.70;99.90;;;;;;5077920;28;20267;-61
2021/12/22 01:40:31;;;;;;;15.00;6.97;;;-3.70;99.90;;;;;;5094039;28;20226;-61
2021/12/22 01:42:58;;;;;;;11.07;6.33;;;-3.80;99.90;;;;;;5093298;28;20187;-61
2021/12/22 01:51:43;;;;;;;13.90;7.27;;;-3.80;99.90;;;;;;5087477;28;20194;-61
2021/12/22 01:54:19;;;;;;;14.23;7.10;;;-3.80;99.90;;;;;;5092033;28;20186;-62
2021/12/22 01:56:45;;;;;;;15.77;7.03;;;-3.80;99.90;;;;;;5093387;28;20696;-61
2021/12/22 01:59:20;;;;;;;16.43;7.77;;;-3.80;99.90;;;;;;5093128;28;20230;-61
2021/12/22 02:01:46;;;;;;;16.83;8.10;;;-3.80;99.90;;;;;;5093760;28;20187;-61
2021/12/22 02:04:13;;;;;;;12.67;7.53;;;-3.80;99.90;;;;;;5093198;28;20656;-61
2021/12/22 02:06:45;;;;;;;16.93;7.93;;;-3.80;99.90;;;;;;5097978;28;20209;-61
2021/12/22 02:09:15;;;;;;;12.27;7.30;;;-3.90;99.90;;;;;;5093371;28;20817;-61
2021/12/22 02:11:41;;;;;;;14.67;7.20;;;-3.90;99.90;;;;;;5093154;28;20196;-60
2021/12/22 02:14:07;;;;;;;16.77;8.80;;;-3.90;99.90;;;;;;5093322;28;20699;-60
2021/12/22 02:16:38;;;;;;;13.33;7.40;;;-3.90;99.90;;;;;;5090998;28;20184;-60
2021/12/22 02:19:06;;;;;;;12.67;7.33;;;-3.90;99.90;;;;;;5092810;28;20179;-61
2021/12/22 02:21:38;;;;;;;12.20;7.20;;;-3.90;99.90;;;;;;5092795;28;20216;-61
2021/12/22 02:24:04;;;;;;;14.00;7.03;;;-4.00;99.90;;;;;;5083073;28;20180;-60
2021/12/22 02:26:38;;;;;;;12.40;7.27;;;-4.00;99.90;;;;;;5091229;28;20643;-60
2021/12/22 02:29:16;;;;;;;11.97;6.93;;;-4.00;99.90;;;;;;5091668;28;20266;-59
2021/12/22 02:31:45;;;;;;;15.10;7.53;;;-4.00;99.90;;;;;;5091935;28;20215;-60
2021/12/22 02:34:14;;;;;;;14.87;7.77;;;-4.00;99.90;;;;;;5092513;28;20176;-60
2021/12/22 02:36:44;;;;;;;11.77;7.10;;;-4.10;99.90;;;;;;5092441;28;20184;-60
2021/12/22 02:39:10;;;;;;;14.03;7.77;;;-4.10;99.90;;;;;;5091286;28;20714;-61
2021/12/22 02:41:37;;;;;;;13.00;6.97;;;-4.10;99.90;;;;;;5091207;28;20315;-60
2021/12/22 02:44:07;;;;;;;14.10;6.70;;;-4.10;99.90;;;;;;5092289;28;20203;-60
2021/12/22 02:46:36;;;;;;;13.47;7.70;;;-4.00;99.90;;;;;;5092095;28;20188;-60
2021/12/22 02:49:05;;;;;;;14.43;7.07;;;-4.10;99.90;;;;;;5090918;28;20180;-60
2021/12/22 02:51:31;;;;;;;13.20;6.93;;;-4.10;99.90;;;;;;5091329;28;20173;-60
2021/12/22 02:56:37;;;;;;;12.40;7.03;;;-4.10;99.90;;;;;;5090715;28;20195;-60
2021/12/22 02:59:17;;;;;;;10.67;6.93;;;-4.10;99.90;;;;;;5091415;28;20199;-59
2021/12/22 03:04:18;;;;;;;12.47;7.43;;;-4.10;99.90;;;;;;5091912;28;20172;-60
2021/12/22 03:06:58;;;;;;;28.20;11.60;;;-4.20;99.90;;;;;;5091515;28;20187;-60
2021/12/22 03:09:29;;;;;;;33.50;13.23;;;-4.20;99.90;;;;;;5090794;28;20176;-60
2021/12/22 03:11:57;;;;;;;32.90;12.93;;;-4.10;99.90;;;;;;5091724;28;20635;-60
2021/12/22 03:14:23;;;;;;;42.77;14.33;;;-4.20;99.90;;;;;;5090757;28;20169;-60
2021/12/22 03:16:50;;;;;;;38.27;15.07;;;-4.20;99.90;;;;;;5090425;28;20199;-60
2021/12/22 03:19:19;;;;;;;43.27;14.93;;;-4.20;99.90;;;;;;5091618;28;20187;-60
2021/12/22 03:21:47;;;;;;;27.37;11.67;;;-4.10;99.90;;;;;;5091287;28;20188;-60
2021/12/22 03:24:14;;;;;;;22.47;11.50;;;-4.10;99.90;;;;;;5091430;28;20639;-60
2021/12/22 03:26:44;;;;;;;25.97;9.80;;;-4.20;99.90;;;;;;5094230;28;20627;-60
2021/12/22 03:29:12;;;;;;;20.73;9.70;;;-4.20;99.90;;;;;;5091749;28;20172;-61
2021/12/22 03:31:38;;;;;;;17.87;9.07;;;-4.20;99.90;;;;;;5089736;28;20192;-60
2021/12/22 03:34:04;;;;;;;22.67;10.10;;;-4.20;99.90;;;;;;5091059;28;20172;-60
2021/12/22 03:36:30;;;;;;;20.47;9.93;;;-4.20;99.90;;;;;;5090804;28;20199;-60
2021/12/22 03:38:55;;;;;;;18.03;8.63;;;-4.20;99.90;;;;;;5091054;28;20180;-61
2021/12/22 03:41:21;;;;;;;18.23;8.13;;;-4.20;99.90;;;;;;5089817;28;20239;-60
2021/12/22 03:43:47;;;;;;;21.10;8.97;;;-4.20;99.90;;;;;;5091108;28;20203;-60
2021/12/22 03:46:12;;;;;;;17.87;8.77;;;-4.20;99.90;;;;;;5090897;28;20631;-60
2021/12/22 03:48:38;;;;;;;16.70;8.67;;;-4.20;99.90;;;;;;5091017;28;20234;-60
2021/12/22 03:51:04;;;;;;;19.50;9.17;;;-4.30;99.90;;;;;;5090737;28;20559;-59
2021/12/22 03:53:29;;;;;;;19.90;9.07;;;-4.30;99.90;;;;;;5091112;28;20184;-60
2021/12/22 03:55:55;;;;;;;18.23;8.77;;;-4.30;99.90;;;;;;5090913;28;20639;-60
2021/12/22 03:58:22;;;;;;;14.50;7.73;;;-4.30;99.90;;;;;;5090426;28;20233;-60
2021/12/22 04:00:51;;;;;;;14.27;8.07;;;-4.30;99.90;;;;;;5091232;28;20235;-60
2021/12/22 04:03:19;;;;;;;16.57;8.50;;;-4.30;99.90;;;;;;5090185;28;20188;-60
2021/12/22 04:05:46;;;;;;;20.80;9.53;;;-4.30;99.90;;;;;;5091223;28;20575;-60
2021/12/22 04:08:13;;;;;;;17.30;9.07;;;-4.30;99.90;;;;;;5091040;28;20211;-60
2021/12/22 04:10:39;;;;;;;18.17;9.40;;;-4.30;99.90;;;;;;5090784;28;20184;-59
2021/12/22 04:13:05;;;;;;;14.47;7.70;;;-4.40;99.90;;;;;;5091200;28;20324;-60
2021/12/22 04:15:31;;;;;;;14.00;7.47;;;-4.30;99.90;;;;;;5091084;28;20263;-60
2021/12/22 04:17:57;;;;;;;13.07;7.47;;;-4.30;99.90;;;;;;5089550;28;20187;-60
2021/12/22 04:20:24;;;;;;;16.17;7.93;;;-4.30;99.90;;;;;;5090498;28;20208;-59
2021/12/22 04:22:49;;;;;;;13.13;7.33;;;-4.30;99.90;;;;;;5090949;28;20178;-59
2021/12/22 04:25:20;;;;;;;13.20;7.57;;;-4.30;99.90;;;;;;5088833;28;20271;-60
2021/12/22 04:27:50;;;;;;;14.67;8.03;;;-4.30;99.90;;;;;;5090839;28;20538;-60
2021/12/22 04:30:16;;;;;;;13.80;7.23;;;-4.30;99.90;;;;;;5091163;28;20184;-59
2021/12/22 04:32:42;;;;;;;16.13;7.93;;;-4.30;99.90;;;;;;5090796;28;20177;-59
2021/12/22 04:35:08;;;;;;;15.43;7.80;;;-4.30;99.90;;;;;;5090898;28;20184;-59
2021/12/22 04:37:33;;;;;;;13.10;7.07;;;-4.30;99.90;;;;;;5090613;28;20253;-59
2021/12/22 04:39:59;;;;;;;16.80;8.17;;;-4.30;99.90;;;;;;5090895;28;20724;-59
2021/12/22 04:42:25;;;;;;;12.40;7.97;;;-4.30;99.90;;;;;;5090982;28;20261;-59
2021/12/22 04:44:53;;;;;;;17.77;9.07;;;-4.30;99.90;;;;;;5089616;28;20180;-60
2021/12/22 04:47:20;;;;;;;17.37;9.03;;;-4.30;99.90;;;;;;5089853;28;20234;-58
2021/12/22 04:49:46;;;;;;;21.00;9.97;;;-4.30;99.90;;;;;;5090014;28;20643;-59
2021/12/22 04:52:16;;;;;;;19.57;9.20;;;-4.30;99.90;;;;;;5090528;28;20181;-60
2021/12/22 04:54:50;;;;;;;21.17;9.80;;;-4.30;99.90;;;;;;5090065;28;20187;-60
2021/12/22 04:57:16;;;;;;;17.87;8.30;;;-4.00;99.90;;;;;;5090698;28;20208;-60
2021/12/22 04:59:41;;;;;;;17.20;8.60;;;-3.90;99.90;;;;;;5089630;28;20210;-60
2021/12/22 05:02:07;;;;;;;16.17;8.23;;;-4.00;99.90;;;;;;5088518;28;20296;-60
2021/12/22 05:04:32;;;;;;;19.23;9.47;;;-4.00;99.90;;;;;;5092802;28;20184;-59
2021/12/22 05:06:58;;;;;;;18.83;9.17;;;-4.10;99.90;;;;;;5093182;28;20191;-62
2021/12/22 05:09:23;;;;;;;17.40;8.30;;;-4.10;99.90;;;;;;5093689;28;20176;-61
2021/12/22 05:11:50;;;;;;;18.47;9.23;;;-4.20;99.90;;;;;;5094129;28;20176;-65
2021/12/22 05:14:16;;;;;;;20.00;8.83;;;-4.20;99.90;;;;;;5094662;28;20525;-58
2021/12/22 05:16:46;;;;;;;17.13;8.73;;;-4.20;99.90;;;;;;5093744;28;20184;-59
2021/12/22 05:19:15;;;;;;;24.33;9.63;;;-4.20;99.90;;;;;;5092879;28;20515;-58
2021/12/22 05:21:42;;;;;;;20.83;8.67;;;-4.30;99.90;;;;;;5093801;28;20244;-58
2021/12/22 05:24:08;;;;;;;14.07;8.73;;;-4.30;99.90;;;;;;5094044;28;20538;-59
2021/12/22 05:26:34;;;;;;;14.00;7.83;;;-4.30;99.90;;;;;;5094422;28;20180;-58
2021/12/22 05:28:59;;;;;;;14.10;7.00;;;-4.30;99.90;;;;;;5094058;28;20283;-59
2021/12/22 05:31:27;;;;;;;13.03;7.17;;;-4.30;99.90;;;;;;5094307;28;20722;-58
2021/12/22 05:33:52;;;;;;;13.47;8.10;;;-4.30;99.90;;;;;;5093617;28;20188;-59
2021/12/22 05:36:18;;;;;;;15.97;7.20;;;-4.30;99.90;;;;;;5091812;28;20184;-59
2021/12/22 05:38:44;;;;;;;13.97;7.40;;;-4.30;99.90;;;;;;5092881;28;20195;-59
2021/12/22 05:41:09;;;;;;;15.27;7.30;;;-4.30;99.90;;;;;;5094088;28;20215;-59
2021/12/22 05:43:35;;;;;;;15.13;7.30;;;-4.40;99.90;;;;;;5094108;28;20176;-59
2021/12/22 05:46:01;;;;;;;16.63;7.13;;;-4.40;99.90;;;;;;5094218;28;20187;-59
2021/12/22 05:48:27;;;;;;;14.63;7.40;;;-4.40;99.90;;;;;;5094056;28;20199;-59
2021/12/22 05:50:57;;;;;;;13.00;7.37;;;-4.40;99.90;;;;;;5092636;28;20596;-59
2021/12/22 05:53:23;;;;;;;13.33;7.30;;;-4.40;99.90;;;;;;5093876;28;20199;-60
2021/12/22 05:55:49;;;;;;;12.97;7.27;;;-4.40;99.90;;;;;;5093797;28;20245;-60
2021/12/22 05:58:14;;;;;;;16.63;7.80;;;-4.50;99.90;;;;;;5093709;28;20613;-60
2021/12/22 06:00:40;;;;;;;16.87;8.83;;;-4.50;99.90;;;;;;5093810;28;20204;-59
2021/12/22 06:03:06;;;;;;;16.83;8.60;;;-4.50;99.90;;;;;;5093775;28;20173;-59
2021/12/22 06:05:31;;;;;;;13.87;7.30;;;-4.50;99.90;;;;;;5093626;28;20228;-59
2021/12/22 06:07:57;;;;;;;12.13;7.17;;;-4.60;99.90;;;;;;5093761;28;20164;-59
2021/12/22 06:10:23;;;;;;;13.63;7.33;;;-4.60;99.90;;;;;;5093526;28;20202;-59
2021/12/22 06:12:48;;;;;;;12.07;7.37;;;-4.60;99.90;;;;;;5093413;28;20533;-59
2021/12/22 06:15:14;;;;;;;16.83;7.97;;;-4.60;99.90;;;;;;5092259;28;20176;-59
2021/12/22 06:17:39;;;;;;;11.83;7.23;;;-4.70;99.90;;;;;;5093491;28;20259;-59
2021/12/22 06:20:06;;;;;;;15.13;7.90;;;-4.70;99.90;;;;;;5093372;28;20204;-59
2021/12/22 06:22:34;;;;;;;13.90;7.60;;;-4.70;99.90;;;;;;5093131;28;20647;-59
2021/12/22 06:24:59;;;;;;;14.67;7.90;;;-4.70;99.90;;;;;;5093457;28;20596;-59
2021/12/22 06:27:25;;;;;;;12.90;7.87;;;-4.70;99.90;;;;;;5093367;28;20180;-59
2021/12/22 06:29:50;;;;;;;16.20;7.97;;;-4.60;99.90;;;;;;5093148;28;20255;-59
2021/12/22 06:32:16;;;;;;;15.27;8.33;;;-4.60;99.90;;;;;;5093203;28;20279;-59
2021/12/22 06:34:41;;;;;;;14.50;8.03;;;-4.60;99.90;;;;;;5093122;28;20172;-59
2021/12/22 06:37:07;;;;;;;15.30;7.87;;;-4.60;99.90;;;;;;5093253;28;20195;-59
2021/12/22 06:39:33;;;;;;;15.33;7.33;;;-4.60;99.90;;;;;;5092769;28;20626;-59
2021/12/22 06:42:00;;;;;;;13.40;7.47;;;-4.60;99.90;;;;;;5093211;28;20181;-59
2021/12/22 06:44:26;;;;;;;15.53;8.57;;;-4.60;99.90;;;;;;5092941;28;20175;-59
2021/12/22 06:46:52;;;;;;;16.80;9.27;;;-4.60;99.90;;;;;;5092850;28;20180;-59
2021/12/22 06:49:18;;;;;;;17.00;9.50;;;-4.60;99.90;;;;;;5092903;28;20183;-59
2021/12/22 06:51:44;;;;;;;21.67;10.43;;;-4.60;99.90;;;;;;5092889;28;20624;-59
2021/12/22 06:54:09;;;;;;;19.80;10.90;;;-4.60;99.90;;;;;;5092679;28;20241;-59
2021/12/22 06:56:35;;;;;;;20.37;9.97;;;-4.60;99.90;;;;;;5092408;28;20258;-59
2021/12/22 06:59:01;;;;;;;28.93;13.73;;;-4.60;99.90;;;;;;5092866;28;20257;-59
2021/12/22 07:01:31;;;;;;;30.40;12.37;;;-4.60;99.90;;;;;;5092572;28;20220;-59
2021/12/22 07:03:56;;;;;;;25.40;12.87;;;-4.60;99.90;;;;;;5092749;28;20255;-59
2021/12/22 07:06:22;;;;;;;21.20;10.40;;;-4.60;99.90;;;;;;5092524;28;20657;-59
2021/12/22 07:08:47;;;;;;;17.83;10.00;;;-4.60;99.90;;;;;;5092626;28;20180;-59
2021/12/22 07:11:13;;;;;;;21.93;10.17;;;-4.60;99.90;;;;;;5092442;28;20672;-59
2021/12/22 07:13:39;;;;;;;19.13;9.43;;;-4.50;99.90;;;;;;5092568;28;20177;-59
2021/12/22 07:16:04;;;;;;;19.90;9.50;;;-4.50;99.90;;;;;;5091121;28;20200;-59
2021/12/22 07:18:32;;;;;;;15.70;8.57;;;-4.50;99.90;;;;;;5092232;28;20180;-59
2021/12/22 07:20:58;;;;;;;16.40;8.23;;;-4.50;99.90;;;;;;5092365;28;20224;-59
2021/12/22 07:23:24;;;;;;;16.60;8.77;;;-4.50;99.90;;;;;;5092292;28;20623;-59
2021/12/22 07:25:49;;;;;;;17.13;9.07;;;-4.50;99.90;;;;;;5091949;28;20190;-59
2021/12/22 07:28:15;;;;;;;13.43;7.80;;;-4.50;99.90;;;;;;5092300;28;20187;-59
2021/12/22 07:30:40;;;;;;;16.20;8.50;;;-4.50;99.90;;;;;;5092291;28;20184;-59
2021/12/22 07:33:06;;;;;;;16.13;8.20;;;-4.40;99.90;;;;;;5092391;28;20252;-59
2021/12/22 07:35:45;;;;;;;16.80;8.30;;;-4.40;99.90;;;;;;5091581;28;20187;-59
2021/12/22 07:38:33;;;;;;;18.00;8.83;;;-4.40;99.90;;;;;;5092049;28;20201;-59
2021/12/22 07:41:01;;;;;;;17.87;9.00;;;-4.40;99.90;;;;;;5092215;28;20220;-59
2021/12/22 07:43:28;;;;;;;20.73;9.53;;;-4.40;99.90;;;;;;5091889;28;20180;-59
2021/12/22 07:45:54;;;;;;;17.57;8.13;;;-4.40;99.90;;;;;;5091987;28;20262;-59
2021/12/22 07:48:20;;;;;;;14.73;8.77;;;-4.30;99.90;;;;;;5091852;28;20172;-59
2021/12/22 07:50:45;;;;;;;17.93;8.90;;;-4.30;99.90;;;;;;5091921;28;20184;-59
2021/12/22 07:53:11;;;;;;;16.13;8.13;;;-4.30;99.90;;;;;;5091932;28;20176;-59
2021/12/22 07:55:37;;;;;;;19.70;8.97;;;-4.30;99.90;;;;;;5091630;28;20187;-59
2021/12/22 07:58:03;;;;;;;16.57;8.87;;;-4.20;99.90;;;;;;5091599;28;20721;-59
2021/12/22 08:00:29;;;;;;;19.10;9.27;;;-4.20;99.90;;;;;;5091726;28;20208;-59
2021/12/22 08:02:55;;;;;;;17.63;9.57;;;-4.10;99.90;;;;;;5091887;28;20262;-59
2021/12/22 08:05:21;;;;;;;24.77;10.67;;;-4.10;99.90;;;;;;5091665;28;20283;-59
2021/12/22 08:07:46;;;;;;;19.83;9.87;;;-4.00;99.90;;;;;;5091720;28;20263;-58
2021/12/22 08:10:12;;;;;;;20.27;10.13;;;-4.00;99.90;;;;;;5091791;28;20262;-59
2021/12/22 08:12:37;;;;;;;19.47;9.77;;;-4.00;99.90;;;;;;5091808;28;20185;-59
2021/12/22 08:15:04;;;;;;;21.47;11.90;;;-3.90;99.90;;;;;;5091694;28;20176;-59
2021/12/22 08:17:32;;;;;;;19.90;12.20;;;-3.90;99.90;;;;;;5091664;28;20184;-59
2021/12/22 08:19:58;;;;;;;23.33;12.27;;;-3.90;99.90;;;;;;5091638;28;20279;-59
2021/12/22 08:22:23;;;;;;;19.30;10.23;;;-3.90;99.90;;;;;;5091608;28;20259;-58
2021/12/22 08:24:50;;;;;;;16.87;9.47;;;-3.80;99.90;;;;;;5091667;28;20203;-59
2021/12/22 08:27:17;;;;;;;20.37;9.03;;;-3.80;99.90;;;;;;5091632;28;20180;-59
2021/12/22 08:29:44;;;;;;;22.70;9.70;;;-3.60;99.90;;;;;;5091579;28;20230;-59
2021/12/22 08:32:11;;;;;;;19.73;9.07;;;-3.50;99.90;;;;;;5091635;28;20207;-59
2021/12/22 08:34:39;;;;;;;21.90;10.10;;;-3.40;99.90;;;;;;5091574;28;20181;-59
2021/12/22 08:39:51;;;;;;;21.60;10.67;;;-3.20;99.90;;;;;;5095664;28;20239;-59
2021/12/22 08:42:18;;;;;;;21.80;10.53;;;-3.10;99.90;;;;;;5095406;28;20178;-59
2021/12/22 08:44:44;;;;;;;20.30;10.60;;;-3.00;99.90;;;;;;5095221;28;20511;-58
2021/12/22 08:47:09;;;;;;;18.90;9.87;;;-3.00;99.90;;;;;;5095360;28;20188;-59
2021/12/22 08:49:35;;;;;;;20.60;10.00;;;-2.90;99.90;;;;;;5095191;28;20180;-58
2021/12/22 08:52:01;;;;;;;20.80;10.60;;;-2.80;99.90;;;;;;5095269;28;20191;-59
2021/12/22 08:54:27;;;;;;;21.07;9.97;;;-2.80;99.90;;;;;;5095013;28;20172;-59
2021/12/22 08:56:55;;;;;;;18.30;10.00;;;-2.70;99.90;;;;;;5094765;28;20587;-59
2021/12/22 08:59:21;;;;;;;21.13;10.67;;;-2.70;99.90;;;;;;5095042;28;20179;-59
2021/12/22 09:01:46;;;;;;;19.90;10.73;;;-2.50;99.90;;;;;;5094950;28;20219;-59
2021/12/22 09:04:12;;;;;;;21.93;10.10;;;-2.50;99.90;;;;;;5094782;28;20177;-59
2021/12/22 09:06:38;;;;;;;24.43;10.20;;;-2.40;99.90;;;;;;5094931;28;20180;-59
2021/12/22 09:09:05;;;;;;;21.10;10.67;;;-2.30;99.90;;;;;;5094709;28;20207;-58
2021/12/22 09:11:30;;;;;;;21.27;10.67;;;-2.20;99.90;;;;;;5094844;28;20237;-59
2021/12/22 09:13:56;;;;;;;21.73;10.90;;;-2.20;99.90;;;;;;5094714;28;20183;-59
2021/12/22 09:16:22;;;;;;;18.87;10.33;;;-2.10;99.90;;;;;;5093176;28;20181;-59
2021/12/22 09:18:47;;;;;;;19.50;10.57;;;-2.00;99.90;;;;;;5094672;28;20176;-59
2021/12/22 09:21:13;;;;;;;18.57;10.43;;;-1.90;99.90;;;;;;5094543;28;20207;-59
2021/12/22 09:23:39;;;;;;;21.20;10.57;;;-1.80;99.90;;;;;;5094637;28;20180;-59
2021/12/22 09:26:07;;;;;;;18.00;10.90;;;-1.70;99.90;;;;;;5094491;28;20613;-59
2021/12/22 09:28:33;;;;;;;20.23;10.60;;;-1.70;99.90;;;;;;5094458;28;20195;-59
2021/12/22 09:30:59;;;;;;;20.27;10.33;;;-1.60;99.90;;;;;;5094465;28;20180;-59
2021/12/22 09:33:25;;;;;;;20.60;10.67;;;-1.50;99.90;;;;;;5094154;28;20176;-59
2021/12/22 09:35:53;;;;;;;21.30;10.60;;;-1.40;99.90;;;;;;5094403;28;20188;-59
2021/12/22 09:38:19;;;;;;;20.37;10.07;;;-1.30;99.90;;;;;;5094278;28;20245;-59
2021/12/22 09:40:46;;;;;;;19.50;10.30;;;-1.30;99.90;;;;;;5094118;28;20251;-60
2021/12/22 09:43:12;;;;;;;23.23;10.77;;;-1.30;99.90;;;;;;5094234;28;20184;-59
2021/12/22 09:45:43;;;;;;;19.73;10.53;;;-1.20;99.90;;;;;;5094216;28;20180;-59
2021/12/22 09:53:30;;;;;;;24.17;11.17;;;-1.10;99.90;;;;;;5093875;28;20271;-59
2021/12/22 09:56:00;;;;;;;22.67;10.83;;;-1.00;99.90;;;;;;5088489;28;20188;-59
2021/12/22 09:58:27;;;;;;;19.67;11.03;;;-1.00;99.90;;;;;;5093689;28;20255;-59
2021/12/22 10:00:53;;;;;;;20.43;10.87;;;-1.00;99.90;;;;;;5092471;28;20208;-59
2021/12/22 10:03:20;;;;;;;19.77;10.33;;;-0.90;99.90;;;;;;5093648;28;20176;-59
2021/12/22 10:05:47;;;;;;;19.27;9.67;;;-0.90;99.90;;;;;;5092544;28;20195;-59
2021/12/22 10:08:18;;;;;;;18.33;10.80;;;-0.80;99.90;;;;;;5092321;28;20610;-59
2021/12/22 10:10:50;;;;;;;21.07;10.47;;;-0.80;99.90;;;;;;5093623;28;20184;-59
2021/12/22 10:13:23;;;;;;;21.90;10.83;;;-0.70;99.90;;;;;;5092389;28;20176;-59
2021/12/22 10:15:49;;;;;;;19.87;11.27;;;-0.60;99.90;;;;;;5093705;28;20241;-59
2021/12/22 10:18:22;;;;;;;19.07;11.00;;;-0.50;99.90;;;;;;5093433;28;20172;-59
2021/12/22 10:20:51;;;;;;;22.63;10.50;;;-0.40;99.90;;;;;;5093439;28;20238;-58
2021/12/22 10:23:27;;;;;;;25.13;11.20;;;-0.30;99.90;;;;;;5093453;28;20181;-59
2021/12/22 10:25:58;;;;;;;21.90;11.50;;;-0.20;99.90;;;;;;5093413;28;20228;-59
2021/12/22 10:28:26;;;;;;;21.33;11.07;;;0.00;99.90;;;;;;5091811;28;20183;-59
2021/12/22 10:30:56;;;;;;;19.13;11.33;;;0.00;99.90;;;;;;5093171;28;20627;-59
2021/12/22 10:33:29;;;;;;;21.03;11.33;;;0.10;99.90;;;;;;5093158;28;20454;-59
2021/12/22 10:36:08;;;;;;;21.50;11.70;;;0.20;99.90;;;;;;5093189;28;20207;-58
2021/12/22 10:38:34;;;;;;;18.27;10.73;;;0.30;99.90;;;;;;5093109;28;20180;-58
2021/12/22 10:41:11;;;;;;;21.53;11.33;;;0.40;99.90;;;;;;5092941;28;20612;-58
2021/12/22 10:43:42;;;;;;;22.40;11.70;;;0.40;99.90;;;;;;5092739;28;20643;-59
2021/12/22 10:46:14;;;;;;;21.03;10.73;;;0.50;99.90;;;;;;5092939;28;20198;-59
2021/12/22 10:51:32;;;;;;;19.03;10.50;;;0.70;99.90;;;;;;5092708;28;20178;-59
2021/12/22 10:54:00;;;;;;;21.73;11.13;;;0.80;99.90;;;;;;5091688;28;20179;-59
2021/12/22 10:56:34;;;;;;;18.47;10.57;;;0.90;99.90;;;;;;5090917;28;20184;-59
2021/12/22 10:59:09;;;;;;;18.23;10.47;;;1.00;99.90;;;;;;5091588;28;20211;-58
2021/12/22 11:01:37;;;;;;;21.60;10.53;;;1.10;99.90;;;;;;5091923;28;20222;-58
2021/12/22 11:04:13;;;;;;;27.17;10.63;;;1.10;99.90;;;;;;5092558;28;20176;-59
2021/12/22 11:06:39;;;;;;;17.30;9.93;;;1.10;99.90;;;;;;5092612;28;20175;-59
2021/12/22 11:09:10;;;;;;;17.00;10.40;;;1.20;99.90;;;;;;5092541;28;20187;-59
2021/12/22 11:11:38;;;;;;;17.20;10.27;;;1.30;99.90;;;;;;5091245;28;20172;-58
2021/12/22 11:14:25;;;;;;;17.80;9.80;;;1.40;99.90;;;;;;5091137;28;20180;-59
2021/12/22 11:16:51;;;;;;;18.87;10.17;;;1.50;99.90;;;;;;5092418;28;20184;-59
2021/12/22 11:19:17;;;;;;;18.47;10.03;;;1.60;99.90;;;;;;5092398;28;20191;-59
2021/12/22 11:21:58;;;;;;;16.03;9.70;;;1.60;99.90;;;;;;5092264;28;20220;-58
2021/12/22 11:24:26;;;;;;;19.93;10.40;;;1.70;99.90;;;;;;5090980;28;20180;-59
2021/12/22 11:26:52;;;;;;;18.67;10.23;;;1.80;99.90;;;;;;5091067;28;20183;-58
2021/12/22 11:29:18;;;;;;;18.57;10.03;;;1.90;99.90;;;;;;5092098;28;20200;-59
2021/12/22 11:31:47;;;;;;;20.93;10.47;;;2.00;99.90;;;;;;5092210;28;20233;-59
2021/12/22 11:34:15;;;;;;;16.40;10.20;;;1.90;99.90;;;;;;5092106;28;20180;-60
2021/12/22 11:36:42;;;;;;;17.33;9.83;;;1.90;99.90;;;;;;5092181;28;20168;-59
2021/12/22 11:39:08;;;;;;;16.27;9.52;;;1.80;99.90;;;;;;5092117;28;20171;-59
2021/12/22 11:41:42;;;;;;;18.37;10.57;;;1.70;99.90;;;;;;5091954;28;20693;-59
2021/12/22 11:44:09;;;;;;;16.17;9.67;;;1.70;99.90;;;;;;5092139;28;20209;-60
2021/12/22 11:46:36;;;;;;;20.07;9.93;;;1.70;99.90;;;;;;5091967;28;20168;-59
2021/12/22 11:49:02;;;;;;;19.97;10.03;;;1.60;99.90;;;;;;5091976;28;20186;-59
2021/12/22 11:51:30;;;;;;;16.37;10.00;;;1.60;99.90;;;;;;5091849;28;20723;-59
2021/12/22 11:54:04;;;;;;;17.90;10.57;;;1.60;99.90;;;;;;5092030;28;20230;-59
2021/12/22 11:56:44;;;;;;;17.27;9.73;;;1.60;99.90;;;;;;5091636;28;20210;-59
2021/12/22 11:59:34;;;;;;;19.50;10.63;;;1.70;99.90;;;;;;5091990;28;20172;-59
2021/12/22 12:02:19;;;;;;;21.77;9.77;;;1.60;99.90;;;;;;5092160;28;20188;-59
2021/12/22 12:04:48;;;;;;;18.77;9.97;;;1.60;99.90;;;;;;5091845;28;20293;-59
2021/12/22 12:07:41;;;;;;;18.30;9.23;;;1.60;99.90;;;;;;5091786;28;20650;-59
2021/12/22 12:10:33;;;;;;;18.67;9.97;;;1.70;99.90;;;;;;5090648;28;20176;-59
2021/12/22 12:13:05;;;;;;;21.60;10.13;;;1.70;99.90;;;;;;5093596;28;20604;-59
2021/12/22 12:21:56;;;;;;;18.73;9.40;;;1.70;99.90;;;;;;5095697;28;20223;-60
2021/12/22 12:24:45;;;;;;;16.97;9.23;;;1.70;99.90;;;;;;5095670;28;20182;-60
2021/12/22 12:27:33;;;;;;;16.67;9.60;;;1.70;99.90;;;;;;5095732;28;20172;-60
2021/12/22 12:30:20;;;;;;;17.70;9.83;;;1.70;99.90;;;;;;5094449;28;20665;-60
2021/12/22 12:32:45;;;;;;;17.83;10.67;;;1.70;99.90;;;;;;5094374;28;20541;-60
2021/12/22 12:35:20;;;;;;;17.93;9.90;;;1.80;99.90;;;;;;5095526;28;20190;-60
2021/12/22 12:38:12;;;;;;;17.13;9.37;;;1.80;99.90;;;;;;5095430;28;20259;-60
2021/12/22 12:41:05;;;;;;;17.40;9.83;;;1.80;99.90;;;;;;5095310;28;20288;-60
2021/12/22 12:46:24;;;;;;;17.60;10.37;;;1.60;99.90;;;;;;5095419;28;20530;-60
2021/12/22 12:48:52;;;;;;;18.80;10.23;;;1.60;99.90;;;;;;5095362;28;20176;-58
2021/12/22 12:51:31;;;;;;;18.27;9.97;;;1.60;99.90;;;;;;5095187;28;20178;-58
2021/12/22 12:54:01;;;;;;;19.60;11.30;;;1.60;99.90;;;;;;5093903;28;20176;-58
2021/12/22 12:56:32;;;;;;;21.33;10.90;;;1.50;99.90;;;;;;5094773;28;20184;-58
2021/12/22 12:58:59;;;;;;;23.60;11.57;;;1.40;99.90;;;;;;5095145;28;20215;-58
2021/12/22 13:01:47;;;;;;;21.30;12.00;;;1.40;99.90;;;;;;5094722;28;20215;-59
2021/12/22 13:04:41;;;;;;;20.43;11.13;;;1.40;99.90;;;;;;5093684;28;20192;-58
2021/12/22 13:07:09;;;;;;;24.70;12.20;;;1.40;99.90;;;;;;5095160;28;20179;-59
2021/12/22 13:09:49;;;;;;;23.13;12.13;;;1.40;99.90;;;;;;5093601;28;20221;-58
2021/12/22 13:12:20;;;;;;;27.77;13.77;;;1.40;99.90;;;;;;5094820;28;20233;-59
2021/12/22 13:17:39;;;;;;;18.97;10.40;;;1.30;99.90;;;;;;5095089;28;20587;-59
2021/12/22 13:20:06;;;;;;;21.67;11.20;;;1.30;99.90;;;;;;5094560;28;20257;-59